createdAt,value
2023-03-22T00:00:17.658Z,3.24
2023-03-22T00:05:40.871Z,3.24
2023-03-22T00:10:43.776Z,3.28
2023-03-22T00:15:49.331Z,3.33
2023-03-22T00:20:55.835Z,3.38
2023-03-22T00:25:58.837Z,3.42
2023-03-22T00:31:02.965Z,3.44
2023-03-22T00:36:09.684Z,3.48
2023-03-22T00:41:16.289Z,3.55
2023-03-22T00:46:21.086Z,3.61
2023-03-22T00:51:24.640Z,3.68
2023-03-22T00:56:29.169Z,3.79
2023-03-22T01:01:32.817Z,3.94
2023-03-22T01:06:36.206Z,4.09
2023-03-22T01:11:39.210Z,4.20
2023-03-22T01:16:42.195Z,4.29
2023-03-22T01:21:45.327Z,4.39
2023-03-22T01:26:48.889Z,4.50
2023-03-22T01:31:52.103Z,4.60
2023-03-22T01:36:55.056Z,4.71
2023-03-22T01:41:58.066Z,4.82
2023-03-22T01:47:00.970Z,4.95
2023-03-22T01:52:12.274Z,5.08
2023-03-22T01:57:15.176Z,5.20
2023-03-22T02:02:22.449Z,5.29
2023-03-22T02:07:28.562Z,5.38
2023-03-22T02:12:42.626Z,5.47
2023-03-22T02:18:19.127Z,5.58
2023-03-22T02:23:21.933Z,5.73
2023-03-22T02:28:42.745Z,5.91
2023-03-22T02:33:48.935Z,6.06
2023-03-22T02:39:09.858Z,6.22
2023-03-22T02:44:43.379Z,6.30
2023-03-22T02:50:08.918Z,6.34
2023-03-22T02:55:30.246Z,6.29
2023-03-22T03:00:36.614Z,6.22
2023-03-22T03:05:43.736Z,6.14
2023-03-22T03:10:48.378Z,6.05
2023-03-22T03:15:55.460Z,5.97
2023-03-22T03:21:30.432Z,5.90
2023-03-22T03:26:36.719Z,5.86
2023-03-22T03:31:50.895Z,5.72
2023-03-22T03:37:01.520Z,5.56
2023-03-22T03:42:07.144Z,5.46
2023-03-22T03:47:12.334Z,5.33
2023-03-22T03:52:15.307Z,5.22
2023-03-22T03:57:18.209Z,5.17
2023-03-22T04:02:21.193Z,5.19
2023-03-22T04:07:24.434Z,5.25
2023-03-22T04:12:27.338Z,5.29
2023-03-22T04:17:32.215Z,5.31
2023-03-22T04:22:38.580Z,5.34
2023-03-22T04:27:43.571Z,5.41
2023-03-22T04:32:47.562Z,5.49
2023-03-22T04:37:51.786Z,5.57
2023-03-22T04:42:57.936Z,5.64
2023-03-22T04:48:01.209Z,5.79
2023-03-22T04:53:04.182Z,6.02
2023-03-22T04:58:07.086Z,6.21
2023-03-22T05:03:10.131Z,6.30
2023-03-22T05:08:14.562Z,6.40
2023-03-22T05:13:17.447Z,6.54
2023-03-22T05:18:24.927Z,6.68
2023-03-22T05:23:28.262Z,6.80
2023-03-22T05:28:32.185Z,6.89
2023-03-22T05:33:35.195Z,6.96
2023-03-22T05:38:38.730Z,7.02
2023-03-22T05:43:41.928Z,7.05
2023-03-22T05:48:44.838Z,7.10
2023-03-22T05:53:49.087Z,7.13
2023-03-22T05:58:52.280Z,7.17
2023-03-22T06:03:55.188Z,7.21
2023-03-22T06:09:14.157Z,7.29
2023-03-22T06:14:19.429Z,7.43
2023-03-22T06:19:22.357Z,7.60
2023-03-22T06:24:25.869Z,7.66
2023-03-22T06:29:28.865Z,7.72
2023-03-22T06:34:32.217Z,7.82
2023-03-22T06:39:35.075Z,7.96
2023-03-22T06:44:37.991Z,8.05
2023-03-22T06:49:41.501Z,8.02
2023-03-22T06:54:44.766Z,7.96
2023-03-22T06:59:47.809Z,7.91
2023-03-22T07:04:50.797Z,7.89
2023-03-22T07:09:53.821Z,7.99
2023-03-22T07:14:56.942Z,8.00
2023-03-22T07:20:00.070Z,7.97
2023-03-22T07:25:03.284Z,7.93
2023-03-22T07:30:09.048Z,7.90
2023-03-22T07:35:12.651Z,7.91
2023-03-22T07:40:15.717Z,8.06
2023-03-22T07:45:20.769Z,8.16
2023-03-22T07:50:23.719Z,8.12
2023-03-22T07:55:26.624Z,8.07
2023-03-22T08:00:29.903Z,8.00
2023-03-22T08:05:33.238Z,7.89
2023-03-22T08:10:36.256Z,7.84
2023-03-22T08:15:39.717Z,7.81
2023-03-22T08:20:45.501Z,7.80
2023-03-22T08:25:48.556Z,7.86
2023-03-22T08:30:52.288Z,7.93
2023-03-22T08:36:06.748Z,8.02
2023-03-22T08:41:09.755Z,8.14
2023-03-22T08:46:12.802Z,8.20
2023-03-22T08:51:20.788Z,8.24
2023-03-22T08:56:25.121Z,8.27
2023-03-22T09:01:28.208Z,8.33
2023-03-22T09:06:31.548Z,8.40
2023-03-22T09:11:35.676Z,8.40
2023-03-22T09:16:38.639Z,8.38
2023-03-22T09:21:41.586Z,8.43
2023-03-22T09:26:44.905Z,8.48
2023-03-22T09:31:50.879Z,8.47
2023-03-22T09:36:54.326Z,8.46
2023-03-22T09:42:02.222Z,8.50
2023-03-22T09:47:08.293Z,8.65
2023-03-22T09:52:16.798Z,8.89
2023-03-22T09:57:22.343Z,9.16
2023-03-22T10:02:48.883Z,9.42
2023-03-22T10:08:03.946Z,9.55
2023-03-22T10:13:23.541Z,9.67
2023-03-22T10:18:33.313Z,9.74
2023-03-22T10:23:55.772Z,9.80
2023-03-22T10:29:12.517Z,9.84
2023-03-22T10:34:24.627Z,9.84
2023-03-22T10:39:39.404Z,9.89
2023-03-22T10:44:50.493Z,9.91
2023-03-22T10:49:56.012Z,10.03
2023-03-22T10:55:03.767Z,10.12
2023-03-22T11:00:11.602Z,10.08
2023-03-22T11:05:24.753Z,10.07
2023-03-22T11:10:33.374Z,10.05
2023-03-22T11:15:49.196Z,9.99
2023-03-22T11:20:57.520Z,9.89
2023-03-22T11:26:09.535Z,9.88
2023-03-22T11:31:15.511Z,9.94
2023-03-22T11:36:19.396Z,9.91
2023-03-22T11:41:25.782Z,9.83
2023-03-22T11:46:30.302Z,9.81
2023-03-22T11:51:37.369Z,9.87
2023-03-22T11:56:43.748Z,10.00
2023-03-22T12:02:13.622Z,10.08
2023-03-22T12:07:22.167Z,10.20
2023-03-22T12:12:30.012Z,10.32
2023-03-22T12:17:49.762Z,10.42
2023-03-22T12:22:55.322Z,10.44
2023-03-22T12:28:02.222Z,10.42
2023-03-22T12:33:29.310Z,10.42
2023-03-22T12:38:41.515Z,10.55
2023-03-22T12:43:49.945Z,10.78
2023-03-22T12:49:27.980Z,10.92
2023-03-22T12:54:31.242Z,10.94
2023-03-22T12:59:34.290Z,10.94
2023-03-22T13:04:37.201Z,10.94
2023-03-22T13:09:42.808Z,10.97
2023-03-22T13:15:28.399Z,10.98
2023-03-22T13:20:34.991Z,10.98
2023-03-22T13:25:40.513Z,10.95
2023-03-22T13:30:56.646Z,10.91
2023-03-22T13:36:07.280Z,10.84
2023-03-22T13:41:33.286Z,10.79
2023-03-22T13:46:36.339Z,10.88
2023-03-22T13:51:41.090Z,10.96
2023-03-22T13:56:57.160Z,11.04
2023-03-22T14:02:22.472Z,11.12
2023-03-22T14:07:40.732Z,11.37
2023-03-22T14:12:58.097Z,12.06
2023-03-22T14:18:16.288Z,12.59
